Date,TemperatureHighF,TemperatureAvgF,TemperatureLowF,DewpointHighF,DewpointAvgF,DewpointLowF,HumidityHigh,HumidityAvg,HumidityLow,PressureMaxIn,PressureMinIn,WindSpeedMaxMPH,WindSpeedAvgMPH,GustSpeedMaxMPH,PrecipitationSumIn
2013-5-1,48,37,28,32,17,-3,91,50,12,0.00,40.00,16,9,27,0.08
2013-5-2,48,35,23,14,7,0,55,33,17,0.00,40.00,11,8,23,0.02
2013-5-3,60,42,23,14,10,8,54,31,13,0.00,40.00,8,6,18,0.00
2013-5-4,67,50,31,17,11,7,42,24,10,0.00,40.00,11,6,24,0.00
2013-5-5,64,53,39,21,14,8,46,23,14,0.00,40.00,12,7,30,0.00
2013-5-6,54,44,36,40,32,20,92,66,29,0.00,40.00,10,4,25,0.37
2013-5-7,48,39,32,41,35,30,92,86,70,0.00,40.00,9,4,27,0.14
2013-5-8,47,38,33,39,34,30,93,85,55,0.00,40.00,7,3,15,0.44
2013-5-9,55,43,34,39,35,32,94,76,45,0.00,40.00,7,3,16,0.55
2013-5-10,62,48,32,36,30,-100,87,55,28,0.00,40.00,9,6,31,0.02
2013-5-11,67,51,34,32,27,22,76,44,19,0.00,40.00,8,5,16,0.00
2013-5-12,69,56,39,32,30,27,64,38,23,0.00,40.00,9,6,21,0.00
2013-5-13,76,61,44,33,31,27,55,35,20,0.00,40.00,9,6,17,0.00
2013-5-14,75,60,49,35,32,29,54,37,21,0.00,40.00,8,5,27,0.00
2013-5-15,73,59,44,46,35,31,66,44,24,0.00,40.00,7,5,17,0.03
2013-5-16,74,55,42,38,15,-100,74,35,16,0.00,40.00,11,7,25,0.01
2013-5-17,68,59,48,23,13,-100,34,19,11,0.00,40.00,14,10,35,0.00
2013-5-18,60,49,39,41,30,23,78,49,26,0.00,40.00,14,6,29,0.09
2013-5-19,55,43,34,35,30,25,85,62,32,0.00,40.00,9,6,26,0.01
2013-5-20,54,42,31,37,32,26,82,67,47,0.00,40.00,14,6,25,0.04
2013-5-21,66,50,32,36,30,23,87,52,21,0.00,40.00,7,5,19,0.04
2013-5-22,71,58,37,28,22,17,59,28,14,0.00,40.00,14,8,31,0.00
2013-5-23,72,63,50,21,13,2,31,16,7,0.00,40.00,18,12,40,0.00
2013-5-24,71,60,45,21,13,7,30,17,10,0.00,40.00,14,8,36,0.00
2013-5-25,72,60,39,16,14,10,35,18,9,0.00,40.00,14,8,31,0.00
2013-5-26,71,60,42,17,13,8,31,17,10,0.00,40.00,15,8,29,0.00
2013-5-27,72,60,42,20,16,9,32,19,12,0.00,40.00,8,6,21,0.00
2013-5-28,68,56,37,35,22,14,89,30,16,0.00,40.00,15,10,37,0.10
2013-5-29,57,48,37,35,30,20,89,55,25,0.00,40.00,12,7,24,0.11
2013-5-30,62,52,40,26,22,16,52,33,19,0.00,40.00,17,8,31,0.00
2013-5-31,65,52,38,22,16,3,49,26,11,0.00,40.00,10,7,28,0.00